sensor_id;sensor_type;location;lat;lon;timestamp;P1;durP1;ratioP1;P2;durP2;ratioP2
31348;SDS011;17976;48.480;11.946;2023-04-08T06:58:14;24.20;;;13.38;;
31348;SDS011;17976;48.480;11.946;2023-04-08T07:00:43;27.08;;;13.68;;
31348;SDS011;17976;48.480;11.946;2023-04-08T07:03:09;22.25;;;13.13;;
31348;SDS011;17976;48.480;11.946;2023-04-08T07:05:35;23.15;;;12.57;;
31348;SDS011;17976;48.480;11.946;2023-04-08T07:08:02;20.88;;;13.65;;
31348;SDS011;17976;48.480;11.946;2023-04-08T07:10:28;25.58;;;13.75;;
31348;SDS011;17976;48.480;11.946;2023-04-08T07:12:54;20.85;;;12.90;;
31348;SDS011;17976;48.480;11.946;2023-04-08T07:15:20;20.45;;;12.98;;
31348;SDS011;17976;48.480;11.946;2023-04-08T07:17:46;25.83;;;13.57;;
31348;SDS011;17976;48.480;11.946;2023-04-08T07:20:12;21.73;;;12.50;;
31348;SDS011;17976;48.480;11.946;2023-04-08T07:22:39;20.83;;;12.48;;
31348;SDS011;17976;48.480;11.946;2023-04-08T07:25:05;22.13;;;13.45;;
31348;SDS011;17976;48.480;11.946;2023-04-08T07:27:34;21.80;;;13.45;;
31348;SDS011;17976;48.480;11.946;2023-04-08T07:30:00;21.75;;;12.43;;
31348;SDS011;17976;48.480;11.946;2023-04-08T07:32:27;21.52;;;12.30;;
31348;SDS011;17976;48.480;11.946;2023-04-08T07:34:53;17.98;;;11.48;;
31348;SDS011;17976;48.480;11.946;2023-04-08T07:37:19;17.88;;;11.80;;
31348;SDS011;17976;48.480;11.946;2023-04-08T07:39:45;22.45;;;12.18;;
31348;SDS011;17976;48.480;11.946;2023-04-08T07:42:11;19.35;;;11.50;;
31348;SDS011;17976;48.480;11.946;2023-04-08T07:44:36;20.30;;;11.93;;
31348;SDS011;17976;48.480;11.946;2023-04-08T07:47:03;17.90;;;10.75;;
31348;SDS011;17976;48.480;11.946;2023-04-08T07:49:28;16.10;;;11.20;;
31348;SDS011;17976;48.480;11.946;2023-04-08T07:51:54;16.95;;;11.85;;
31348;SDS011;17976;48.480;11.946;2023-04-08T07:54:21;17.48;;;11.82;;
31348;SDS011;17976;48.480;11.946;2023-04-08T07:56:47;17.20;;;11.43;;
31348;SDS011;17976;48.480;11.946;2023-04-08T07:59:13;18.17;;;11.35;;
31348;SDS011;17976;48.480;11.946;2023-04-08T08:01:39;18.85;;;10.95;;
31348;SDS011;17976;48.480;11.946;2023-04-08T08:04:05;19.15;;;9.90;;
31348;SDS011;17976;48.480;11.946;2023-04-08T08:06:31;16.52;;;9.38;;
31348;SDS011;17976;48.480;11.946;2023-04-08T08:08:57;16.73;;;10.32;;
31348;SDS011;17976;48.480;11.946;2023-04-08T08:11:23;18.50;;;10.20;;
31348;SDS011;17976;48.480;11.946;2023-04-08T08:13:51;17.25;;;10.15;;
31348;SDS011;17976;48.480;11.946;2023-04-08T08:16:17;16.80;;;10.02;;
31348;SDS011;17976;48.480;11.946;2023-04-08T08:18:43;14.43;;;10.02;;
31348;SDS011;17976;48.480;11.946;2023-04-08T08:21:09;16.23;;;11.13;;
31348;SDS011;17976;48.480;11.946;2023-04-08T08:23:35;18.20;;;10.80;;
31348;SDS011;17976;48.480;11.946;2023-04-08T08:26:05;15.25;;;10.23;;
31348;SDS011;17976;48.480;11.946;2023-04-08T08:28:31;14.85;;;10.38;;
31348;SDS011;17976;48.480;11.946;2023-04-08T08:30:57;17.63;;;11.05;;
31348;SDS011;17976;48.480;11.946;2023-04-08T08:33:24;17.67;;;10.70;;
31348;SDS011;17976;48.480;11.946;2023-04-08T08:35:50;18.25;;;11.00;;
31348;SDS011;17976;48.480;11.946;2023-04-08T08:38:16;16.10;;;10.85;;
31348;SDS011;17976;48.480;11.946;2023-04-08T08:40:42;18.90;;;11.68;;
31348;SDS011;17976;48.480;11.946;2023-04-08T08:43:09;18.73;;;12.05;;
31348;SDS011;17976;48.480;11.946;2023-04-08T08:45:41;27.63;;;11.07;;
31348;SDS011;17976;48.480;11.946;2023-04-08T08:48:07;18.15;;;11.15;;
31348;SDS011;17976;48.480;11.946;2023-04-08T08:50:34;18.90;;;11.48;;
31348;SDS011;17976;48.480;11.946;2023-04-08T08:53:00;19.02;;;11.20;;
31348;SDS011;17976;48.480;11.946;2023-04-08T08:55:28;19.75;;;11.95;;
31348;SDS011;17976;48.480;11.946;2023-04-08T08:57:55;18.10;;;11.90;;
31348;SDS011;17976;48.480;11.946;2023-04-08T09:00:33;17.38;;;11.18;;
31348;SDS011;17976;48.480;11.946;2023-04-08T09:05:58;20.08;;;12.45;;
31348;SDS011;17976;48.480;11.946;2023-04-08T09:10:51;21.50;;;11.90;;
31348;SDS011;17976;48.480;11.946;2023-04-08T09:13:17;17.42;;;11.60;;
31348;SDS011;17976;48.480;11.946;2023-04-08T09:15:59;17.45;;;12.27;;
31348;SDS011;17976;48.480;11.946;2023-04-08T09:18:25;16.30;;;11.20;;
31348;SDS011;17976;48.480;11.946;2023-04-08T09:20:52;16.95;;;11.82;;
31348;SDS011;17976;48.480;11.946;2023-04-08T09:23:18;19.08;;;12.70;;
31348;SDS011;17976;48.480;11.946;2023-04-08T09:25:44;16.38;;;11.65;;
31348;SDS011;17976;48.480;11.946;2023-04-08T09:28:19;16.23;;;11.43;;
31348;SDS011;17976;48.480;11.946;2023-04-08T09:30:45;14.77;;;10.73;;
31348;SDS011;17976;48.480;11.946;2023-04-08T09:33:11;15.55;;;11.30;;
31348;SDS011;17976;48.480;11.946;2023-04-08T09:35:37;17.95;;;11.48;;
31348;SDS011;17976;48.480;11.946;2023-04-08T09:38:03;15.27;;;11.23;;
31348;SDS011;17976;48.480;11.946;2023-04-08T09:40:33;13.90;;;9.73;;
31348;SDS011;17976;48.480;11.946;2023-04-08T09:43:01;17.63;;;10.88;;
31348;SDS011;17976;48.480;11.946;2023-04-08T09:45:29;13.80;;;10.10;;
31348;SDS011;17976;48.480;11.946;2023-04-08T09:50:30;12.98;;;8.35;;
31348;SDS011;17976;48.480;11.946;2023-04-08T09:53:01;11.88;;;7.90;;
31348;SDS011;17976;48.480;11.946;2023-04-08T09:55:33;9.90;;;7.30;;
31348;SDS011;17976;48.480;11.946;2023-04-08T09:58:01;10.05;;;7.18;;
31348;SDS011;17976;48.480;11.946;2023-04-08T10:00:32;8.27;;;6.63;;
31348;SDS011;17976;48.480;11.946;2023-04-08T10:05:54;9.02;;;6.05;;
31348;SDS011;17976;48.480;11.946;2023-04-08T10:08:22;10.52;;;7.47;;
31348;SDS011;17976;48.480;11.946;2023-04-08T10:10:48;7.75;;;6.22;;
31348;SDS011;17976;48.480;11.946;2023-04-08T10:13:14;10.05;;;7.63;;
31348;SDS011;17976;48.480;11.946;2023-04-08T10:15:40;9.68;;;7.30;;
31348;SDS011;17976;48.480;11.946;2023-04-08T10:23:04;9.48;;;7.45;;
31348;SDS011;17976;48.480;11.946;2023-04-08T10:27:57;11.70;;;8.35;;
31348;SDS011;17976;48.480;11.946;2023-04-08T10:32:53;10.35;;;7.60;;
31348;SDS011;17976;48.480;11.946;2023-04-08T10:37:56;14.38;;;8.20;;
31348;SDS011;17976;48.480;11.946;2023-04-08T10:40:22;12.90;;;8.85;;
31348;SDS011;17976;48.480;11.946;2023-04-08T10:42:55;11.43;;;8.45;;
31348;SDS011;17976;48.480;11.946;2023-04-08T10:45:21;14.05;;;8.40;;
31348;SDS011;17976;48.480;11.946;2023-04-08T10:47:47;10.50;;;7.68;;
31348;SDS011;17976;48.480;11.946;2023-04-08T10:50:13;12.55;;;8.20;;
31348;SDS011;17976;48.480;11.946;2023-04-08T10:52:47;11.30;;;8.00;;
31348;SDS011;17976;48.480;11.946;2023-04-08T10:55:13;12.43;;;8.25;;
31348;SDS011;17976;48.480;11.946;2023-04-08T10:57:40;10.95;;;8.00;;
31348;SDS011;17976;48.480;11.946;2023-04-08T11:00:09;12.15;;;9.02;;
31348;SDS011;17976;48.480;11.946;2023-04-08T11:02:39;13.18;;;8.18;;
31348;SDS011;17976;48.480;11.946;2023-04-08T11:05:05;14.00;;;9.43;;
31348;SDS011;17976;48.480;11.946;2023-04-08T11:07:31;13.55;;;9.50;;
31348;SDS011;17976;48.480;11.946;2023-04-08T11:10:01;15.90;;;9.57;;
31348;SDS011;17976;48.480;11.946;2023-04-08T11:12:27;14.70;;;10.60;;
31348;SDS011;17976;48.480;11.946;2023-04-08T11:14:53;14.00;;;9.45;;
31348;SDS011;17976;48.480;11.946;2023-04-08T11:17:19;15.48;;;10.80;;
31348;SDS011;17976;48.480;11.946;2023-04-08T11:19:46;15.02;;;9.57;;
31348;SDS011;17976;48.480;11.946;2023-04-08T11:22:12;16.73;;;10.38;;
31348;SDS011;17976;48.480;11.946;2023-04-08T11:24:38;15.10;;;10.27;;
31348;SDS011;17976;48.480;11.946;2023-04-08T11:27:04;16.33;;;10.57;;
31348;SDS011;17976;48.480;11.946;2023-04-08T11:29:31;17.92;;;11.18;;
31348;SDS011;17976;48.480;11.946;2023-04-08T11:31:57;16.42;;;10.40;;
31348;SDS011;17976;48.480;11.946;2023-04-08T11:34:24;15.43;;;10.65;;
31348;SDS011;17976;48.480;11.946;2023-04-08T11:36:50;15.77;;;10.98;;
31348;SDS011;17976;48.480;11.946;2023-04-08T11:39:16;17.50;;;11.75;;
31348;SDS011;17976;48.480;11.946;2023-04-08T11:41:42;20.00;;;11.88;;
31348;SDS011;17976;48.480;11.946;2023-04-08T11:44:08;18.40;;;11.43;;
31348;SDS011;17976;48.480;11.946;2023-04-08T11:46:34;16.42;;;11.05;;
31348;SDS011;17976;48.480;11.946;2023-04-08T11:49:02;20.13;;;11.88;;
31348;SDS011;17976;48.480;11.946;2023-04-08T11:51:28;16.55;;;9.82;;
31348;SDS011;17976;48.480;11.946;2023-04-08T11:53:54;16.52;;;10.60;;
31348;SDS011;17976;48.480;11.946;2023-04-08T11:56:21;17.77;;;11.02;;
31348;SDS011;17976;48.480;11.946;2023-04-08T11:58:50;16.63;;;10.40;;
31348;SDS011;17976;48.480;11.946;2023-04-08T12:01:16;15.43;;;9.98;;
31348;SDS011;17976;48.480;11.946;2023-04-08T12:04:00;15.35;;;10.52;;
31348;SDS011;17976;48.480;11.946;2023-04-08T12:08:53;18.92;;;11.80;;
31348;SDS011;17976;48.480;11.946;2023-04-08T12:11:19;19.58;;;11.45;;
31348;SDS011;17976;48.480;11.946;2023-04-08T12:13:45;20.80;;;11.73;;
31348;SDS011;17976;48.480;11.946;2023-04-08T12:16:13;16.20;;;10.50;;
31348;SDS011;17976;48.480;11.946;2023-04-08T12:18:39;18.42;;;11.30;;
31348;SDS011;17976;48.480;11.946;2023-04-08T12:21:05;16.35;;;10.65;;
31348;SDS011;17976;48.480;11.946;2023-04-08T12:23:31;18.00;;;11.43;;
31348;SDS011;17976;48.480;11.946;2023-04-08T12:25:57;17.48;;;10.98;;
31348;SDS011;17976;48.480;11.946;2023-04-08T12:28:23;19.17;;;11.38;;
31348;SDS011;17976;48.480;11.946;2023-04-08T12:30:49;16.50;;;10.38;;
31348;SDS011;17976;48.480;11.946;2023-04-08T12:33:15;14.32;;;10.45;;
31348;SDS011;17976;48.480;11.946;2023-04-08T12:35:41;14.00;;;10.13;;
31348;SDS011;17976;48.480;11.946;2023-04-08T12:38:07;17.73;;;11.02;;
31348;SDS011;17976;48.480;11.946;2023-04-08T12:40:33;15.98;;;10.73;;
31348;SDS011;17976;48.480;11.946;2023-04-08T12:42:59;16.40;;;10.95;;
31348;SDS011;17976;48.480;11.946;2023-04-08T12:45:25;17.15;;;10.77;;
31348;SDS011;17976;48.480;11.946;2023-04-08T12:47:51;15.57;;;10.48;;
31348;SDS011;17976;48.480;11.946;2023-04-08T12:50:17;18.80;;;11.52;;
31348;SDS011;17976;48.480;11.946;2023-04-08T12:52:43;15.73;;;11.02;;
31348;SDS011;17976;48.480;11.946;2023-04-08T12:55:09;16.83;;;11.43;;
31348;SDS011;17976;48.480;11.946;2023-04-08T12:57:35;17.45;;;10.93;;
31348;SDS011;17976;48.480;11.946;2023-04-08T13:00:01;16.80;;;11.30;;
31348;SDS011;17976;48.480;11.946;2023-04-08T13:02:28;18.30;;;11.00;;
31348;SDS011;17976;48.480;11.946;2023-04-08T13:04:54;16.83;;;11.02;;
31348;SDS011;17976;48.480;11.946;2023-04-08T13:07:20;17.48;;;11.52;;
31348;SDS011;17976;48.480;11.946;2023-04-08T13:09:46;17.75;;;10.43;;
31348;SDS011;17976;48.480;11.946;2023-04-08T13:12:12;17.40;;;10.60;;
31348;SDS011;17976;48.480;11.946;2023-04-08T13:14:38;19.20;;;11.30;;
31348;SDS011;17976;48.480;11.946;2023-04-08T13:17:04;15.75;;;11.20;;
31348;SDS011;17976;48.480;11.946;2023-04-08T13:19:30;16.98;;;11.15;;
31348;SDS011;17976;48.480;11.946;2023-04-08T13:21:56;15.63;;;10.82;;
31348;SDS011;17976;48.480;11.946;2023-04-08T13:24:22;17.15;;;10.65;;
31348;SDS011;17976;48.480;11.946;2023-04-08T13:26:48;16.45;;;11.15;;
31348;SDS011;17976;48.480;11.946;2023-04-08T13:29:13;19.05;;;11.85;;
31348;SDS011;17976;48.480;11.946;2023-04-08T13:31:39;17.50;;;10.60;;
31348;SDS011;17976;48.480;11.946;2023-04-08T13:34:06;18.35;;;12.40;;
31348;SDS011;17976;48.480;11.946;2023-04-08T13:36:32;16.35;;;11.55;;
31348;SDS011;17976;48.480;11.946;2023-04-08T13:38:58;18.08;;;10.77;;
31348;SDS011;17976;48.480;11.946;2023-04-08T13:41:24;18.60;;;11.65;;
31348;SDS011;17976;48.480;11.946;2023-04-08T13:43:51;17.42;;;11.15;;
31348;SDS011;17976;48.480;11.946;2023-04-08T13:46:17;17.30;;;11.23;;
31348;SDS011;17976;48.480;11.946;2023-04-08T13:48:43;17.42;;;11.38;;
31348;SDS011;17976;48.480;11.946;2023-04-08T13:51:10;18.60;;;11.20;;
31348;SDS011;17976;48.480;11.946;2023-04-08T13:53:36;16.05;;;10.95;;
31348;SDS011;17976;48.480;11.946;2023-04-08T13:56:02;16.33;;;10.73;;
31348;SDS011;17976;48.480;11.946;2023-04-08T13:58:27;18.75;;;10.48;;
31348;SDS011;17976;48.480;11.946;2023-04-08T14:00:53;16.08;;;10.77;;
31348;SDS011;17976;48.480;11.946;2023-04-08T14:03:20;14.25;;;9.07;;
31348;SDS011;17976;48.480;11.946;2023-04-08T14:05:46;18.23;;;10.00;;
31348;SDS011;17976;48.480;11.946;2023-04-08T14:08:12;14.40;;;8.98;;
31348;SDS011;17976;48.480;11.946;2023-04-08T14:10:38;13.73;;;8.95;;
31348;SDS011;17976;48.480;11.946;2023-04-08T14:13:05;15.60;;;9.93;;
31348;SDS011;17976;48.480;11.946;2023-04-08T14:15:31;13.52;;;10.15;;
31348;SDS011;17976;48.480;11.946;2023-04-08T14:17:57;15.52;;;10.35;;
31348;SDS011;17976;48.480;11.946;2023-04-08T14:20:23;13.10;;;8.68;;
31348;SDS011;17976;48.480;11.946;2023-04-08T14:22:49;14.68;;;9.45;;
31348;SDS011;17976;48.480;11.946;2023-04-08T14:25:15;12.68;;;8.95;;
31348;SDS011;17976;48.480;11.946;2023-04-08T14:27:41;15.85;;;9.77;;
31348;SDS011;17976;48.480;11.946;2023-04-08T14:30:08;14.35;;;8.98;;
31348;SDS011;17976;48.480;11.946;2023-04-08T14:32:34;16.38;;;8.35;;
31348;SDS011;17976;48.480;11.946;2023-04-08T14:35:00;13.98;;;8.98;;
31348;SDS011;17976;48.480;11.946;2023-04-08T14:37:26;12.45;;;8.80;;
31348;SDS011;17976;48.480;11.946;2023-04-08T14:39:52;11.23;;;8.05;;
31348;SDS011;17976;48.480;11.946;2023-04-08T14:42:18;11.38;;;7.97;;
31348;SDS011;17976;48.480;11.946;2023-04-08T14:44:57;13.63;;;8.90;;
31348;SDS011;17976;48.480;11.946;2023-04-08T14:47:31;13.18;;;7.85;;
31348;SDS011;17976;48.480;11.946;2023-04-08T14:50:35;12.18;;;8.38;;
31348;SDS011;17976;48.480;11.946;2023-04-08T14:53:03;13.25;;;8.73;;
31348;SDS011;17976;48.480;11.946;2023-04-08T14:56:03;14.73;;;8.95;;
31348;SDS011;17976;48.480;11.946;2023-04-08T15:01:48;13.60;;;8.60;;
31348;SDS011;17976;48.480;11.946;2023-04-08T15:04:25;13.65;;;7.82;;
31348;SDS011;17976;48.480;11.946;2023-04-08T15:07:11;11.73;;;8.00;;
31348;SDS011;17976;48.480;11.946;2023-04-08T15:09:40;12.85;;;7.75;;
31348;SDS011;17976;48.480;11.946;2023-04-08T15:12:33;12.55;;;8.07;;
31348;SDS011;17976;48.480;11.946;2023-04-08T15:15:02;12.20;;;7.95;;
31348;SDS011;17976;48.480;11.946;2023-04-08T15:17:32;17.77;;;7.18;;
31348;SDS011;17976;48.480;11.946;2023-04-08T15:20:02;10.27;;;6.95;;
31348;SDS011;17976;48.480;11.946;2023-04-08T15:22:32;11.30;;;6.95;;
31348;SDS011;17976;48.480;11.946;2023-04-08T15:25:07;9.35;;;6.05;;
31348;SDS011;17976;48.480;11.946;2023-04-08T15:27:55;9.87;;;6.40;;
31348;SDS011;17976;48.480;11.946;2023-04-08T15:30:27;10.77;;;7.38;;
31348;SDS011;17976;48.480;11.946;2023-04-08T15:32:59;9.13;;;6.38;;
31348;SDS011;17976;48.480;11.946;2023-04-08T15:35:25;12.45;;;6.53;;
31348;SDS011;17976;48.480;11.946;2023-04-08T15:37:51;9.55;;;6.60;;
31348;SDS011;17976;48.480;11.946;2023-04-08T15:40:17;10.77;;;6.63;;
31348;SDS011;17976;48.480;11.946;2023-04-08T15:42:43;10.25;;;6.43;;
31348;SDS011;17976;48.480;11.946;2023-04-08T15:45:10;8.20;;;5.75;;
31348;SDS011;17976;48.480;11.946;2023-04-08T15:47:36;14.15;;;6.72;;
31348;SDS011;17976;48.480;11.946;2023-04-08T15:50:02;12.25;;;6.78;;
31348;SDS011;17976;48.480;11.946;2023-04-08T15:52:28;10.45;;;6.18;;
31348;SDS011;17976;48.480;11.946;2023-04-08T15:54:54;11.93;;;8.13;;
31348;SDS011;17976;48.480;11.946;2023-04-08T15:57:20;9.75;;;6.80;;
31348;SDS011;17976;48.480;11.946;2023-04-08T15:59:50;13.05;;;7.75;;
31348;SDS011;17976;48.480;11.946;2023-04-08T16:02:16;17.13;;;8.82;;
31348;SDS011;17976;48.480;11.946;2023-04-08T16:04:42;14.18;;;7.45;;
31348;SDS011;17976;48.480;11.946;2023-04-08T16:07:08;14.23;;;8.15;;
31348;SDS011;17976;48.480;11.946;2023-04-08T16:09:34;11.35;;;7.45;;
31348;SDS011;17976;48.480;11.946;2023-04-08T16:12:00;13.52;;;8.13;;
31348;SDS011;17976;48.480;11.946;2023-04-08T16:14:26;13.43;;;7.72;;
31348;SDS011;17976;48.480;11.946;2023-04-08T16:16:52;10.20;;;6.80;;
31348;SDS011;17976;48.480;11.946;2023-04-08T16:19:19;11.60;;;6.57;;
31348;SDS011;17976;48.480;11.946;2023-04-08T16:21:45;9.50;;;6.65;;
31348;SDS011;17976;48.480;11.946;2023-04-08T16:24:11;10.15;;;6.65;;
31348;SDS011;17976;48.480;11.946;2023-04-08T16:26:38;9.88;;;6.82;;
31348;SDS011;17976;48.480;11.946;2023-04-08T16:29:04;10.07;;;6.93;;
31348;SDS011;17976;48.480;11.946;2023-04-08T16:31:31;8.73;;;6.57;;
31348;SDS011;17976;48.480;11.946;2023-04-08T16:33:57;10.10;;;6.93;;
31348;SDS011;17976;48.480;11.946;2023-04-08T16:36:23;11.82;;;7.55;;
31348;SDS011;17976;48.480;11.946;2023-04-08T16:38:49;11.85;;;7.78;;
31348;SDS011;17976;48.480;11.946;2023-04-08T16:41:15;9.35;;;6.20;;
31348;SDS011;17976;48.480;11.946;2023-04-08T16:43:41;11.68;;;7.32;;
31348;SDS011;17976;48.480;11.946;2023-04-08T16:46:10;12.27;;;8.20;;
31348;SDS011;17976;48.480;11.946;2023-04-08T16:48:37;11.40;;;7.82;;
31348;SDS011;17976;48.480;11.946;2023-04-08T16:51:03;12.15;;;7.32;;
31348;SDS011;17976;48.480;11.946;2023-04-08T16:53:30;14.60;;;7.80;;
31348;SDS011;17976;48.480;11.946;2023-04-08T16:55:56;10.57;;;7.78;;
31348;SDS011;17976;48.480;11.946;2023-04-08T16:58:22;12.30;;;8.13;;
31348;SDS011;17976;48.480;11.946;2023-04-08T17:00:48;13.10;;;9.10;;
31348;SDS011;17976;48.480;11.946;2023-04-08T17:03:14;13.05;;;8.13;;
31348;SDS011;17976;48.480;11.946;2023-04-08T17:05:40;12.43;;;7.88;;
31348;SDS011;17976;48.480;11.946;2023-04-08T17:08:06;12.73;;;8.18;;
31348;SDS011;17976;48.480;11.946;2023-04-08T17:10:32;11.18;;;7.78;;
31348;SDS011;17976;48.480;11.946;2023-04-08T17:13:17;10.13;;;7.55;;
31348;SDS011;17976;48.480;11.946;2023-04-08T17:15:43;11.45;;;7.75;;
31348;SDS011;17976;48.480;11.946;2023-04-08T17:18:09;11.48;;;7.60;;
31348;SDS011;17976;48.480;11.946;2023-04-08T17:20:35;10.25;;;6.85;;
31348;SDS011;17976;48.480;11.946;2023-04-08T17:23:01;13.95;;;7.95;;
31348;SDS011;17976;48.480;11.946;2023-04-08T17:25:27;17.90;;;7.95;;
31348;SDS011;17976;48.480;11.946;2023-04-08T17:27:53;12.93;;;7.95;;
31348;SDS011;17976;48.480;11.946;2023-04-08T17:30:19;9.93;;;7.82;;
31348;SDS011;17976;48.480;11.946;2023-04-08T17:32:45;12.15;;;8.35;;
31348;SDS011;17976;48.480;11.946;2023-04-08T17:35:12;10.82;;;7.75;;
31348;SDS011;17976;48.480;11.946;2023-04-08T17:37:38;11.65;;;7.97;;
31348;SDS011;17976;48.480;11.946;2023-04-08T17:40:04;9.57;;;6.85;;
31348;SDS011;17976;48.480;11.946;2023-04-08T17:42:30;11.68;;;7.30;;
31348;SDS011;17976;48.480;11.946;2023-04-08T17:45:02;11.25;;;6.95;;
31348;SDS011;17976;48.480;11.946;2023-04-08T17:47:42;10.60;;;7.40;;
31348;SDS011;17976;48.480;11.946;2023-04-08T17:50:17;11.20;;;7.70;;
31348;SDS011;17976;48.480;11.946;2023-04-08T17:52:46;10.70;;;7.47;;
31348;SDS011;17976;48.480;11.946;2023-04-08T17:55:12;9.48;;;7.10;;
31348;SDS011;17976;48.480;11.946;2023-04-08T17:57:38;11.13;;;6.63;;
31348;SDS011;17976;48.480;11.946;2023-04-08T18:00:33;10.20;;;6.80;;
31348;SDS011;17976;48.480;11.946;2023-04-08T18:03:02;10.30;;;6.50;;
31348;SDS011;17976;48.480;11.946;2023-04-08T18:05:59;9.30;;;6.50;;
31348;SDS011;17976;48.480;11.946;2023-04-08T18:11:32;9.52;;;6.93;;
31348;SDS011;17976;48.480;11.946;2023-04-08T18:14:01;9.88;;;6.43;;
31348;SDS011;17976;48.480;11.946;2023-04-08T18:17:19;8.82;;;6.60;;
31348;SDS011;17976;48.480;11.946;2023-04-08T18:19:45;9.93;;;7.13;;
31348;SDS011;17976;48.480;11.946;2023-04-08T18:22:11;10.00;;;7.03;;
31348;SDS011;17976;48.480;11.946;2023-04-08T18:24:37;12.25;;;7.93;;
31348;SDS011;17976;48.480;11.946;2023-04-08T18:27:03;9.63;;;6.95;;
31348;SDS011;17976;48.480;11.946;2023-04-08T18:29:29;10.07;;;6.68;;
31348;SDS011;17976;48.480;11.946;2023-04-08T18:31:55;10.23;;;7.15;;
31348;SDS011;17976;48.480;11.946;2023-04-08T18:34:27;9.25;;;6.28;;
31348;SDS011;17976;48.480;11.946;2023-04-08T18:37:16;9.57;;;6.53;;
31348;SDS011;17976;48.480;11.946;2023-04-08T18:40:04;9.73;;;6.50;;
31348;SDS011;17976;48.480;11.946;2023-04-08T18:43:11;11.27;;;6.45;;
31348;SDS011;17976;48.480;11.946;2023-04-08T18:45:58;12.75;;;6.80;;
31348;SDS011;17976;48.480;11.946;2023-04-08T18:48:25;12.82;;;7.72;;
31348;SDS011;17976;48.480;11.946;2023-04-08T18:50:55;10.52;;;6.60;;
31348;SDS011;17976;48.480;11.946;2023-04-08T18:53:21;9.00;;;6.78;;
31348;SDS011;17976;48.480;11.946;2023-04-08T18:58:32;8.48;;;6.90;;
31348;SDS011;17976;48.480;11.946;2023-04-08T19:00:58;11.02;;;6.93;;
31348;SDS011;17976;48.480;11.946;2023-04-08T19:03:24;9.68;;;6.53;;
31348;SDS011;17976;48.480;11.946;2023-04-08T19:05:51;11.65;;;6.75;;
31348;SDS011;17976;48.480;11.946;2023-04-08T19:08:17;10.80;;;7.10;;
31348;SDS011;17976;48.480;11.946;2023-04-08T19:10:43;10.90;;;6.70;;
31348;SDS011;17976;48.480;11.946;2023-04-08T19:13:09;11.13;;;7.00;;
31348;SDS011;17976;48.480;11.946;2023-04-08T19:15:35;8.25;;;6.22;;
31348;SDS011;17976;48.480;11.946;2023-04-08T19:18:01;9.25;;;6.13;;
31348;SDS011;17976;48.480;11.946;2023-04-08T19:20:28;10.07;;;6.53;;
31348;SDS011;17976;48.480;11.946;2023-04-08T19:22:53;8.93;;;6.32;;
31348;SDS011;17976;48.480;11.946;2023-04-08T19:25:19;9.77;;;7.22;;
31348;SDS011;17976;48.480;11.946;2023-04-08T19:27:45;9.45;;;6.47;;
31348;SDS011;17976;48.480;11.946;2023-04-08T19:30:11;9.05;;;6.50;;
31348;SDS011;17976;48.480;11.946;2023-04-08T19:32:38;9.90;;;6.80;;
31348;SDS011;17976;48.480;11.946;2023-04-08T19:35:04;11.05;;;6.75;;
31348;SDS011;17976;48.480;11.946;2023-04-08T19:37:30;13.80;;;7.72;;
31348;SDS011;17976;48.480;11.946;2023-04-08T19:39:56;10.77;;;7.05;;
31348;SDS011;17976;48.480;11.946;2023-04-08T19:42:22;9.77;;;7.05;;
31348;SDS011;17976;48.480;11.946;2023-04-08T19:44:48;12.48;;;7.13;;
31348;SDS011;17976;48.480;11.946;2023-04-08T19:47:14;10.73;;;7.25;;
31348;SDS011;17976;48.480;11.946;2023-04-08T19:49:41;12.07;;;7.30;;
31348;SDS011;17976;48.480;11.946;2023-04-08T19:52:07;11.75;;;7.20;;
31348;SDS011;17976;48.480;11.946;2023-04-08T19:54:33;9.88;;;6.88;;
31348;SDS011;17976;48.480;11.946;2023-04-08T19:57:00;13.23;;;7.40;;
31348;SDS011;17976;48.480;11.946;2023-04-08T19:59:26;9.13;;;6.97;;
